sensor_id;sensor_type;location;lat;lon;timestamp;P1;P2;P0
72307;PMS5003;60257;42.638;23.376;2023-10-13T00:01:33;23.67;23.00;16.33
72307;PMS5003;60257;42.638;23.376;2023-10-13T00:03:59;30.00;27.33;17.67
72307;PMS5003;60257;42.638;23.376;2023-10-13T00:06:30;24.67;23.67;16.67
72307;PMS5003;60257;42.638;23.376;2023-10-13T00:08:56;27.67;26.00;17.00
72307;PMS5003;60257;42.638;23.376;2023-10-13T00:11:21;30.33;28.67;20.33
72307;PMS5003;60257;42.638;23.376;2023-10-13T00:13:47;25.33;22.00;16.33
72307;PMS5003;60257;42.638;23.376;2023-10-13T00:16:19;20.33;20.33;13.33
72307;PMS5003;60257;42.638;23.376;2023-10-13T00:18:47;20.33;20.33;14.67
72307;PMS5003;60257;42.638;23.376;2023-10-13T00:21:19;23.33;21.67;15.00
72307;PMS5003;60257;42.638;23.376;2023-10-13T00:23:56;17.67;17.33;12.00
72307;PMS5003;60257;42.638;23.376;2023-10-13T00:26:24;30.33;25.00;15.00
72307;PMS5003;60257;42.638;23.376;2023-10-13T00:28:57;20.67;19.67;11.33
72307;PMS5003;60257;42.638;23.376;2023-10-13T00:31:42;24.33;24.33;15.00
72307;PMS5003;60257;42.638;23.376;2023-10-13T00:34:08;23.67;23.33;15.33
72307;PMS5003;60257;42.638;23.376;2023-10-13T00:36:44;22.00;21.67;12.67
72307;PMS5003;60257;42.638;23.376;2023-10-13T00:39:14;23.00;23.00;16.00
72307;PMS5003;60257;42.638;23.376;2023-10-13T00:41:44;24.00;23.67;15.00
72307;PMS5003;60257;42.638;23.376;2023-10-13T00:44:23;18.33;18.33;15.00
72307;PMS5003;60257;42.638;23.376;2023-10-13T00:47:06;17.67;17.67;8.67
72307;PMS5003;60257;42.638;23.376;2023-10-13T00:49:35;24.67;21.33;14.33
72307;PMS5003;60257;42.638;23.376;2023-10-13T00:52:07;22.33;22.33;13.00
72307;PMS5003;60257;42.638;23.376;2023-10-13T00:54:35;20.67;19.67;13.00
72307;PMS5003;60257;42.638;23.376;2023-10-13T00:57:02;25.00;24.33;18.00
72307;PMS5003;60257;42.638;23.376;2023-10-13T00:59:51;24.67;24.33;17.00
72307;PMS5003;60257;42.638;23.376;2023-10-13T01:02:18;29.00;24.00;17.00
72307;PMS5003;60257;42.638;23.376;2023-10-13T01:05:06;20.00;20.00;16.33
72307;PMS5003;60257;42.638;23.376;2023-10-13T01:07:37;23.67;22.67;15.00
72307;PMS5003;60257;42.638;23.376;2023-10-13T01:10:09;27.00;27.00;19.00
72307;PMS5003;60257;42.638;23.376;2023-10-13T01:12:39;25.00;24.00;18.33
72307;PMS5003;60257;42.638;23.376;2023-10-13T01:15:09;25.00;23.67;14.67
72307;PMS5003;60257;42.638;23.376;2023-10-13T01:17:36;23.33;22.67;15.00
72307;PMS5003;60257;42.638;23.376;2023-10-13T01:20:02;22.00;22.00;17.00
72307;PMS5003;60257;42.638;23.376;2023-10-13T01:22:30;21.67;20.67;15.67
72307;PMS5003;60257;42.638;23.376;2023-10-13T01:24:57;26.00;22.00;16.00
72307;PMS5003;60257;42.638;23.376;2023-10-13T01:27:35;27.67;26.00;17.00
72307;PMS5003;60257;42.638;23.376;2023-10-13T01:30:03;21.33;19.67;12.33
72307;PMS5003;60257;42.638;23.376;2023-10-13T01:32:38;23.67;22.33;17.00
72307;PMS5003;60257;42.638;23.376;2023-10-13T01:35:08;32.00;27.67;17.00
72307;PMS5003;60257;42.638;23.376;2023-10-13T01:37:35;21.67;19.00;17.00
72307;PMS5003;60257;42.638;23.376;2023-10-13T01:40:00;23.33;21.67;14.00
72307;PMS5003;60257;42.638;23.376;2023-10-13T01:42:26;29.00;28.00;17.00
72307;PMS5003;60257;42.638;23.376;2023-10-13T01:44:53;23.00;21.00;15.00
72307;PMS5003;60257;42.638;23.376;2023-10-13T01:47:30;30.67;28.33;20.00
72307;PMS5003;60257;42.638;23.376;2023-10-13T01:49:59;27.67;23.33;15.00
72307;PMS5003;60257;42.638;23.376;2023-10-13T01:52:38;20.67;19.67;11.00
72307;PMS5003;60257;42.638;23.376;2023-10-13T01:55:03;26.00;24.00;16.67
72307;PMS5003;60257;42.638;23.376;2023-10-13T01:57:31;29.00;29.00;19.00
72307;PMS5003;60257;42.638;23.376;2023-10-13T01:59:57;26.67;24.33;17.00
72307;PMS5003;60257;42.638;23.376;2023-10-13T02:02:29;27.67;25.33;16.67
72307;PMS5003;60257;42.638;23.376;2023-10-13T02:04:55;26.00;23.67;15.67
72307;PMS5003;60257;42.638;23.376;2023-10-13T02:07:22;22.67;22.00;12.67
72307;PMS5003;60257;42.638;23.376;2023-10-13T02:09:57;28.33;25.33;16.00
72307;PMS5003;60257;42.638;23.376;2023-10-13T02:12:23;24.00;22.33;15.33
72307;PMS5003;60257;42.638;23.376;2023-10-13T02:15:00;27.00;27.00;17.67
72307;PMS5003;60257;42.638;23.376;2023-10-13T02:17:26;24.33;24.33;17.67
72307;PMS5003;60257;42.638;23.376;2023-10-13T02:19:51;26.67;26.67;17.00
72307;PMS5003;60257;42.638;23.376;2023-10-13T02:22:19;31.00;29.67;16.00
72307;PMS5003;60257;42.638;23.376;2023-10-13T02:24:54;30.00;24.33;16.67
72307;PMS5003;60257;42.638;23.376;2023-10-13T02:27:26;27.33;25.33;16.00
72307;PMS5003;60257;42.638;23.376;2023-10-13T02:29:51;27.33;27.00;17.00
72307;PMS5003;60257;42.638;23.376;2023-10-13T02:32:23;27.00;27.00;16.67
72307;PMS5003;60257;42.638;23.376;2023-10-13T02:34:49;28.33;27.00;19.33
72307;PMS5003;60257;42.638;23.376;2023-10-13T02:37:15;28.00;27.33;17.67
72307;PMS5003;60257;42.638;23.376;2023-10-13T02:39:43;24.00;24.00;18.33
72307;PMS5003;60257;42.638;23.376;2023-10-13T02:42:09;27.33;27.00;16.33
72307;PMS5003;60257;42.638;23.376;2023-10-13T02:44:42;30.00;28.00;19.00
72307;PMS5003;60257;42.638;23.376;2023-10-13T02:47:11;26.67;24.33;15.67
72307;PMS5003;60257;42.638;23.376;2023-10-13T02:49:40;26.00;23.00;15.00
72307;PMS5003;60257;42.638;23.376;2023-10-13T02:52:11;27.00;27.00;17.00
72307;PMS5003;60257;42.638;23.376;2023-10-13T02:54:41;26.33;25.67;18.00
72307;PMS5003;60257;42.638;23.376;2023-10-13T02:57:16;25.00;24.33;14.00
72307;PMS5003;60257;42.638;23.376;2023-10-13T02:59:42;31.67;31.33;19.00
72307;PMS5003;60257;42.638;23.376;2023-10-13T03:02:21;27.33;26.67;20.00
72307;PMS5003;60257;42.638;23.376;2023-10-13T03:04:54;25.33;24.67;15.67
72307;PMS5003;60257;42.638;23.376;2023-10-13T03:07:34;29.00;27.33;18.33
72307;PMS5003;60257;42.638;23.376;2023-10-13T03:10:01;34.00;27.67;18.00
72307;PMS5003;60257;42.638;23.376;2023-10-13T03:12:35;28.00;25.33;19.33
72307;PMS5003;60257;42.638;23.376;2023-10-13T03:15:04;27.00;25.33;16.00
72307;PMS5003;60257;42.638;23.376;2023-10-13T03:17:46;28.33;24.67;17.67
72307;PMS5003;60257;42.638;23.376;2023-10-13T03:20:13;26.33;25.33;15.00
72307;PMS5003;60257;42.638;23.376;2023-10-13T03:22:41;24.33;22.33;16.00
72307;PMS5003;60257;42.638;23.376;2023-10-13T03:25:13;24.00;24.00;18.00
72307;PMS5003;60257;42.638;23.376;2023-10-13T03:27:58;32.67;28.33;18.33
72307;PMS5003;60257;42.638;23.376;2023-10-13T03:30:23;29.00;29.00;22.00
72307;PMS5003;60257;42.638;23.376;2023-10-13T03:32:59;38.33;33.33;22.00
72307;PMS5003;60257;42.638;23.376;2023-10-13T03:35:26;34.67;31.00;21.33
72307;PMS5003;60257;42.638;23.376;2023-10-13T03:38:02;34.00;32.33;22.00
72307;PMS5003;60257;42.638;23.376;2023-10-13T03:40:28;29.33;28.67;20.00
72307;PMS5003;60257;42.638;23.376;2023-10-13T03:42:55;35.33;33.00;22.00
72307;PMS5003;60257;42.638;23.376;2023-10-13T03:45:37;36.00;34.00;21.33
72307;PMS5003;60257;42.638;23.376;2023-10-13T03:48:17;36.67;33.00;23.00
72307;PMS5003;60257;42.638;23.376;2023-10-13T03:50:49;30.00;29.67;20.00
72307;PMS5003;60257;42.638;23.376;2023-10-13T03:53:31;32.33;29.67;20.67
72307;PMS5003;60257;42.638;23.376;2023-10-13T03:56:04;31.00;31.00;21.67
72307;PMS5003;60257;42.638;23.376;2023-10-13T03:58:34;30.00;25.00;18.33
72307;PMS5003;60257;42.638;23.376;2023-10-13T04:01:01;29.67;28.67;18.00
72307;PMS5003;60257;42.638;23.376;2023-10-13T04:03:28;30.00;30.00;20.00
72307;PMS5003;60257;42.638;23.376;2023-10-13T04:05:58;33.00;28.33;18.00
72307;PMS5003;60257;42.638;23.376;2023-10-13T04:08:31;25.33;25.33;18.33
72307;PMS5003;60257;42.638;23.376;2023-10-13T04:11:32;29.67;28.67;19.33
72307;PMS5003;60257;42.638;23.376;2023-10-13T04:14:26;31.00;29.00;19.67
72307;PMS5003;60257;42.638;23.376;2023-10-13T04:17:12;34.33;30.67;19.67
72307;PMS5003;60257;42.638;23.376;2023-10-13T04:19:40;50.75;42.75;30.00
72307;PMS5003;60257;42.638;23.376;2023-10-13T04:22:27;34.75;33.25;23.50
72307;PMS5003;60257;42.638;23.376;2023-10-13T04:25:15;39.25;34.50;23.25
72307;PMS5003;60257;42.638;23.376;2023-10-13T04:28:03;33.67;31.00;20.00
72307;PMS5003;60257;42.638;23.376;2023-10-13T04:38:43;30.00;30.00;19.67
72307;PMS5003;60257;42.638;23.376;2023-10-13T04:41:27;39.33;34.33;21.67
72307;PMS5003;60257;42.638;23.376;2023-10-13T04:44:16;34.33;32.67;23.00
72307;PMS5003;60257;42.638;23.376;2023-10-13T04:47:01;35.00;34.00;24.00
72307;PMS5003;60257;42.638;23.376;2023-10-13T04:49:27;42.67;36.00;23.33
72307;PMS5003;60257;42.638;23.376;2023-10-13T04:51:55;45.00;36.33;23.33
72307;PMS5003;60257;42.638;23.376;2023-10-13T04:54:30;30.00;26.67;20.33
72307;PMS5003;60257;42.638;23.376;2023-10-13T04:57:02;37.00;33.67;20.67
72307;PMS5003;60257;42.638;23.376;2023-10-13T04:59:49;25.00;23.67;14.00
72307;PMS5003;60257;42.638;23.376;2023-10-13T05:02:34;26.00;26.00;16.67
72307;PMS5003;60257;42.638;23.376;2023-10-13T05:05:10;31.00;29.00;20.00
72307;PMS5003;60257;42.638;23.376;2023-10-13T05:07:43;26.67;26.00;16.00
72307;PMS5003;60257;42.638;23.376;2023-10-13T05:10:31;35.67;32.67;20.00
72307;PMS5003;60257;42.638;23.376;2023-10-13T05:13:16;34.00;32.00;21.33
72307;PMS5003;60257;42.638;23.376;2023-10-13T05:16:00;34.00;31.67;19.00
72307;PMS5003;60257;42.638;23.376;2023-10-13T05:18:44;33.67;31.67;21.33
72307;PMS5003;60257;42.638;23.376;2023-10-13T05:21:28;25.33;24.00;17.00
72307;PMS5003;60257;42.638;23.376;2023-10-13T05:24:13;30.67;30.67;17.00
72307;PMS5003;60257;42.638;23.376;2023-10-13T05:26:56;25.33;22.67;17.67
72307;PMS5003;60257;42.638;23.376;2023-10-13T05:29:41;31.67;29.00;19.33
72307;PMS5003;60257;42.638;23.376;2023-10-13T05:32:26;37.00;34.00;22.67
72307;PMS5003;60257;42.638;23.376;2023-10-13T05:35:11;32.33;29.00;21.33
72307;PMS5003;60257;42.638;23.376;2023-10-13T05:37:56;34.67;30.67;20.67
72307;PMS5003;60257;42.638;23.376;2023-10-13T05:40:50;30.33;28.33;19.00
72307;PMS5003;60257;42.638;23.376;2023-10-13T05:43:38;28.00;28.00;20.33
72307;PMS5003;60257;42.638;23.376;2023-10-13T05:46:22;26.33;26.00;18.33
72307;PMS5003;60257;42.638;23.376;2023-10-13T05:48:51;29.33;29.33;18.67
72307;PMS5003;60257;42.638;23.376;2023-10-13T05:51:37;37.33;32.33;21.33
72307;PMS5003;60257;42.638;23.376;2023-10-13T05:54:13;37.67;33.33;24.00
72307;PMS5003;60257;42.638;23.376;2023-10-13T05:56:45;34.00;32.33;22.00
72307;PMS5003;60257;42.638;23.376;2023-10-13T05:59:31;38.67;31.33;20.67
72307;PMS5003;60257;42.638;23.376;2023-10-13T06:02:20;40.67;34.67;23.00
72307;PMS5003;60257;42.638;23.376;2023-10-13T06:05:05;38.67;34.67;22.67
72307;PMS5003;60257;42.638;23.376;2023-10-13T06:07:51;36.33;32.00;20.67
72307;PMS5003;60257;42.638;23.376;2023-10-13T06:10:36;41.67;36.00;23.00
72307;PMS5003;60257;42.638;23.376;2023-10-13T06:13:20;50.67;42.33;28.00
72307;PMS5003;60257;42.638;23.376;2023-10-13T06:16:08;42.00;37.67;25.67
72307;PMS5003;60257;42.638;23.376;2023-10-13T06:18:56;35.33;33.67;21.00
72307;PMS5003;60257;42.638;23.376;2023-10-13T06:21:40;44.67;37.67;25.00
72307;PMS5003;60257;42.638;23.376;2023-10-13T06:24:25;42.67;36.67;24.33
72307;PMS5003;60257;42.638;23.376;2023-10-13T06:27:09;47.00;40.00;25.00
72307;PMS5003;60257;42.638;23.376;2023-10-13T06:29:53;46.00;37.00;25.00
72307;PMS5003;60257;42.638;23.376;2023-10-13T06:32:19;44.67;37.33;25.33
72307;PMS5003;60257;42.638;23.376;2023-10-13T06:34:45;46.00;39.33;26.00
72307;PMS5003;60257;42.638;23.376;2023-10-13T06:37:15;43.33;36.67;25.00
72307;PMS5003;60257;42.638;23.376;2023-10-13T06:39:51;40.33;35.33;23.33
72307;PMS5003;60257;42.638;23.376;2023-10-13T06:42:21;44.00;37.00;24.00
72307;PMS5003;60257;42.638;23.376;2023-10-13T06:44:53;39.33;36.00;24.67
72307;PMS5003;60257;42.638;23.376;2023-10-13T06:47:21;40.33;36.00;23.33
72307;PMS5003;60257;42.638;23.376;2023-10-13T06:49:50;46.00;37.67;24.00
72307;PMS5003;60257;42.638;23.376;2023-10-13T06:52:19;47.33;39.33;26.67
72307;PMS5003;60257;42.638;23.376;2023-10-13T06:54:44;49.00;40.67;26.00
72307;PMS5003;60257;42.638;23.376;2023-10-13T06:57:11;45.33;39.33;26.67
72307;PMS5003;60257;42.638;23.376;2023-10-13T06:59:42;32.00;30.00;20.67
72307;PMS5003;60257;42.638;23.376;2023-10-13T07:02:07;46.33;37.33;24.00
72307;PMS5003;60257;42.638;23.376;2023-10-13T07:04:35;41.33;34.00;23.00
72307;PMS5003;60257;42.638;23.376;2023-10-13T07:07:07;46.33;40.33;26.67
72307;PMS5003;60257;42.638;23.376;2023-10-13T07:09:35;46.00;39.67;27.00
72307;PMS5003;60257;42.638;23.376;2023-10-13T07:12:02;47.00;40.00;26.00
72307;PMS5003;60257;42.638;23.376;2023-10-13T07:14:32;50.00;41.00;26.00
72307;PMS5003;60257;42.638;23.376;2023-10-13T07:17:02;51.00;42.00;28.00
72307;PMS5003;60257;42.638;23.376;2023-10-13T07:19:30;51.00;41.67;27.00
72307;PMS5003;60257;42.638;23.376;2023-10-13T07:22:00;46.67;38.00;26.33
72307;PMS5003;60257;42.638;23.376;2023-10-13T07:24:47;45.33;38.33;25.00
72307;PMS5003;60257;42.638;23.376;2023-10-13T07:27:18;51.67;41.00;26.67
72307;PMS5003;60257;42.638;23.376;2023-10-13T07:29:51;45.00;38.00;26.00
72307;PMS5003;60257;42.638;23.376;2023-10-13T07:32:36;46.67;38.00;26.00
72307;PMS5003;60257;42.638;23.376;2023-10-13T07:35:01;45.00;36.67;24.00
72307;PMS5003;60257;42.638;23.376;2023-10-13T07:37:32;46.00;39.00;25.67
72307;PMS5003;60257;42.638;23.376;2023-10-13T07:39:57;44.00;36.67;24.67
72307;PMS5003;60257;42.638;23.376;2023-10-13T07:42:24;41.00;35.67;24.33
72307;PMS5003;60257;42.638;23.376;2023-10-13T07:44:55;42.67;37.33;25.00
72307;PMS5003;60257;42.638;23.376;2023-10-13T07:47:22;47.00;39.00;26.33
72307;PMS5003;60257;42.638;23.376;2023-10-13T07:49:49;36.33;30.00;21.33
72307;PMS5003;60257;42.638;23.376;2023-10-13T07:52:16;40.67;35.33;23.00
72307;PMS5003;60257;42.638;23.376;2023-10-13T07:54:45;37.33;33.00;21.67
72307;PMS5003;60257;42.638;23.376;2023-10-13T07:57:17;19.67;19.67;9.00
72307;PMS5003;60257;42.638;23.376;2023-10-13T07:59:43;38.67;36.00;25.33
72307;PMS5003;60257;42.638;23.376;2023-10-13T08:02:18;56.00;44.33;27.33
72307;PMS5003;60257;42.638;23.376;2023-10-13T08:05:02;43.33;39.00;25.67
72307;PMS5003;60257;42.638;23.376;2023-10-13T08:07:34;36.67;33.00;22.00
72307;PMS5003;60257;42.638;23.376;2023-10-13T08:10:05;33.67;31.67;25.00
72307;PMS5003;60257;42.638;23.376;2023-10-13T08:12:34;34.67;33.33;22.00
72307;PMS5003;60257;42.638;23.376;2023-10-13T08:15:02;32.33;32.33;20.67
72307;PMS5003;60257;42.638;23.376;2023-10-13T08:17:46;31.33;31.33;18.00
72307;PMS5003;60257;42.638;23.376;2023-10-13T08:20:12;35.67;33.67;22.33
72307;PMS5003;60257;42.638;23.376;2023-10-13T08:22:41;36.00;33.67;21.67
72307;PMS5003;60257;42.638;23.376;2023-10-13T08:25:12;33.00;32.00;20.00
72307;PMS5003;60257;42.638;23.376;2023-10-13T08:27:45;38.00;34.00;21.00
72307;PMS5003;60257;42.638;23.376;2023-10-13T08:30:11;39.67;32.67;20.67
72307;PMS5003;60257;42.638;23.376;2023-10-13T08:32:53;40.33;36.33;24.67
72307;PMS5003;60257;42.638;23.376;2023-10-13T08:35:23;47.67;38.33;25.67
72307;PMS5003;60257;42.638;23.376;2023-10-13T08:37:59;41.67;36.33;23.33
72307;PMS5003;60257;42.638;23.376;2023-10-13T08:40:29;49.00;40.67;25.33
72307;PMS5003;60257;42.638;23.376;2023-10-13T08:43:18;50.33;40.00;28.33
72307;PMS5003;60257;42.638;23.376;2023-10-13T08:45:43;51.00;43.33;29.00
72307;PMS5003;60257;42.638;23.376;2023-10-13T08:48:12;50.00;38.67;26.33
72307;PMS5003;60257;42.638;23.376;2023-10-13T08:50:50;43.67;37.33;24.33
72307;PMS5003;60257;42.638;23.376;2023-10-13T08:53:20;42.33;36.00;23.67
72307;PMS5003;60257;42.638;23.376;2023-10-13T08:55:55;40.67;35.00;21.67
72307;PMS5003;60257;42.638;23.376;2023-10-13T08:58:46;47.33;38.67;25.67
72307;PMS5003;60257;42.638;23.376;2023-10-13T09:01:19;48.00;38.67;24.33
72307;PMS5003;60257;42.638;23.376;2023-10-13T09:04:10;44.33;37.00;23.67
72307;PMS5003;60257;42.638;23.376;2023-10-13T09:07:04;50.67;38.67;25.67
72307;PMS5003;60257;42.638;23.376;2023-10-13T09:09:51;42.00;37.00;23.67
72307;PMS5003;60257;42.638;23.376;2023-10-13T09:15:28;46.67;39.33;24.33
72307;PMS5003;60257;42.638;23.376;2023-10-13T09:17:40;43.33;34.00;23.33
72307;PMS5003;60257;42.638;23.376;2023-10-13T09:20:12;45.67;38.00;23.33
72307;PMS5003;60257;42.638;23.376;2023-10-13T09:22:48;49.33;40.67;26.67
72307;PMS5003;60257;42.638;23.376;2023-10-13T09:25:37;51.33;42.00;27.00
72307;PMS5003;60257;42.638;23.376;2023-10-13T09:28:14;48.67;40.00;28.00
72307;PMS5003;60257;42.638;23.376;2023-10-13T09:30:49;39.67;36.33;26.00
72307;PMS5003;60257;42.638;23.376;2023-10-13T09:33:22;50.33;41.67;26.33
72307;PMS5003;60257;42.638;23.376;2023-10-13T09:36:01;46.67;37.67;26.00
72307;PMS5003;60257;42.638;23.376;2023-10-13T09:38:29;46.00;39.00;25.00
72307;PMS5003;60257;42.638;23.376;2023-10-13T09:40:58;42.33;36.00;24.00
72307;PMS5003;60257;42.638;23.376;2023-10-13T09:43:27;46.67;38.33;25.33
72307;PMS5003;60257;42.638;23.376;2023-10-13T09:45:59;47.33;40.00;25.33
72307;PMS5003;60257;42.638;23.376;2023-10-13T09:48:53;48.67;41.33;28.33
72307;PMS5003;60257;42.638;23.376;2023-10-13T09:51:39;43.67;37.00;25.33
72307;PMS5003;60257;42.638;23.376;2023-10-13T09:56:52;47.00;38.33;24.00
72307;PMS5003;60257;42.638;23.376;2023-10-13T09:59:49;41.33;34.33;23.00
72307;PMS5003;60257;42.638;23.376;2023-10-13T10:02:21;39.33;34.67;23.33
72307;PMS5003;60257;42.638;23.376;2023-10-13T10:04:54;33.00;30.25;18.75
72307;PMS5003;60257;42.638;23.376;2023-10-13T10:07:36;37.75;33.50;24.25
72307;PMS5003;60257;42.638;23.376;2023-10-13T10:10:01;33.50;32.00;21.25
72307;PMS5003;60257;42.638;23.376;2023-10-13T10:12:41;33.25;30.25;20.75
72307;PMS5003;60257;42.638;23.376;2023-10-13T10:15:28;33.75;31.50;23.25
72307;PMS5003;60257;42.638;23.376;2023-10-13T10:18:17;34.25;31.75;21.75
72307;PMS5003;60257;42.638;23.376;2023-10-13T10:20:45;29.00;27.50;15.75
72307;PMS5003;60257;42.638;23.376;2023-10-13T10:23:25;33.00;30.25;19.50
72307;PMS5003;60257;42.638;23.376;2023-10-13T10:25:54;37.25;32.50;20.25
72307;PMS5003;60257;42.638;23.376;2023-10-13T10:28:41;35.00;30.00;20.25
72307;PMS5003;60257;42.638;23.376;2023-10-13T10:31:10;32.50;30.25;20.50
72307;PMS5003;60257;42.638;23.376;2023-10-13T10:33:42;33.50;31.00;20.25
72307;PMS5003;60257;42.638;23.376;2023-10-13T10:36:08;33.25;30.25;21.00
72307;PMS5003;60257;42.638;23.376;2023-10-13T10:38:52;15.00;14.00;6.00
72307;PMS5003;60257;42.638;23.376;2023-10-13T10:41:25;16.00;15.25;9.75
72307;PMS5003;60257;42.638;23.376;2023-10-13T10:44:17;21.50;17.75;13.50
72307;PMS5003;60257;42.638;23.376;2023-10-13T10:47:08;18.50;18.50;12.75
72307;PMS5003;60257;42.638;23.376;2023-10-13T10:49:46;16.75;14.75;10.50
72307;PMS5003;60257;42.638;23.376;2023-10-13T10:52:16;19.25;15.00;9.50
72307;PMS5003;60257;42.638;23.376;2023-10-13T10:54:46;18.50;16.00;10.00
72307;PMS5003;60257;42.638;23.376;2023-10-13T10:57:23;15.50;14.00;9.50
72307;PMS5003;60257;42.638;23.376;2023-10-13T10:59:54;14.00;14.00;8.75
72307;PMS5003;60257;42.638;23.376;2023-10-13T11:02:36;13.75;13.75;9.50
72307;PMS5003;60257;42.638;23.376;2023-10-13T11:05:02;11.00;11.00;7.50
72307;PMS5003;60257;42.638;23.376;2023-10-13T11:07:29;11.75;11.00;7.25
72307;PMS5003;60257;42.638;23.376;2023-10-13T11:09:55;12.75;11.75;8.50
72307;PMS5003;60257;42.638;23.376;2023-10-13T11:12:36;13.75;13.50;9.00
72307;PMS5003;60257;42.638;23.376;2023-10-13T11:15:02;14.75;12.25;8.25
72307;PMS5003;60257;42.638;23.376;2023-10-13T11:18:01;14.00;14.00;9.00
72307;PMS5003;60257;42.638;23.376;2023-10-13T11:20:30;16.00;15.75;10.00
72307;PMS5003;60257;42.638;23.376;2023-10-13T11:23:00;15.25;12.25;7.50
72307;PMS5003;60257;42.638;23.376;2023-10-13T11:25:30;17.75;15.00;10.00
72307;PMS5003;60257;42.638;23.376;2023-10-13T11:28:09;15.25;13.25;8.25
72307;PMS5003;60257;42.638;23.376;2023-10-13T11:30:42;8.00;8.00;6.25
72307;PMS5003;60257;42.638;23.376;2023-10-13T11:33:11;11.00;10.00;7.00
72307;PMS5003;60257;42.638;23.376;2023-10-13T11:35:43;11.00;9.00;6.50
72307;PMS5003;60257;42.638;23.376;2023-10-13T11:38:18;11.50;10.00;7.50
72307;PMS5003;60257;42.638;23.376;2023-10-13T11:40:53;10.25;9.25;6.25
72307;PMS5003;60257;42.638;23.376;2023-10-13T11:43:26;11.00;11.00;6.25
72307;PMS5003;60257;42.638;23.376;2023-10-13T11:45:52;20.00;18.25;13.25
72307;PMS5003;60257;42.638;23.376;2023-10-13T11:48:38;11.50;10.50;6.25
72307;PMS5003;60257;42.638;23.376;2023-10-13T11:51:07;14.25;13.75;8.50
72307;PMS5003;60257;42.638;23.376;2023-10-13T11:53:43;13.25;12.50;8.00
72307;PMS5003;60257;42.638;23.376;2023-10-13T11:56:10;15.00;13.00;8.00
72307;PMS5003;60257;42.638;23.376;2023-10-13T11:58:39;12.50;12.00;7.00
72307;PMS5003;60257;42.638;23.376;2023-10-13T12:01:05;9.50;8.75;7.00
72307;PMS5003;60257;42.638;23.376;2023-10-13T12:03:40;17.25;15.00;11.00
72307;PMS5003;60257;42.638;23.376;2023-10-13T12:06:25;12.00;12.00;8.25
72307;PMS5003;60257;42.638;23.376;2023-10-13T12:09:03;15.25;14.25;9.00
72307;PMS5003;60257;42.638;23.376;2023-10-13T12:11:45;13.50;13.50;9.00
72307;PMS5003;60257;42.638;23.376;2023-10-13T12:14:16;8.50;8.00;4.00
72307;PMS5003;60257;42.638;23.376;2023-10-13T12:16:45;15.25;14.75;9.00
72307;PMS5003;60257;42.638;23.376;2023-10-13T12:19:19;17.25;13.25;10.00
72307;PMS5003;60257;42.638;23.376;2023-10-13T12:21:54;14.25;9.50;5.00
72307;PMS5003;60257;42.638;23.376;2023-10-13T12:24:27;14.25;12.50;6.00
72307;PMS5003;60257;42.638;23.376;2023-10-13T12:27:08;16.75;13.75;9.00
72307;PMS5003;60257;42.638;23.376;2023-10-13T12:30:00;14.00;14.00;8.50
72307;PMS5003;60257;42.638;23.376;2023-10-13T12:32:32;10.25;7.00;5.00
72307;PMS5003;60257;42.638;23.376;2023-10-13T12:34:59;18.25;15.25;10.00
72307;PMS5003;60257;42.638;23.376;2023-10-13T12:37:45;14.25;12.75;9.00
72307;PMS5003;60257;42.638;23.376;2023-10-13T12:40:14;14.25;13.25;7.00
72307;PMS5003;60257;42.638;23.376;2023-10-13T12:43:00;14.00;13.25;9.00
72307;PMS5003;60257;42.638;23.376;2023-10-13T12:45:48;14.00;11.75;6.25
72307;PMS5003;60257;42.638;23.376;2023-10-13T12:48:34;24.25;21.50;15.00
72307;PMS5003;60257;42.638;23.376;2023-10-13T12:51:18;9.75;9.00;6.00
72307;PMS5003;60257;42.638;23.376;2023-10-13T12:53:54;8.00;6.75;3.00
72307;PMS5003;60257;42.638;23.376;2023-10-13T12:56:21;10.50;8.75;6.75
72307;PMS5003;60257;42.638;23.376;2023-10-13T12:58:53;12.25;11.25;5.25
72307;PMS5003;60257;42.638;23.376;2023-10-13T13:03:49;16.75;15.75;11.00
72307;PMS5003;60257;42.638;23.376;2023-10-13T13:06:19;10.00;6.50;3.25
72307;PMS5003;60257;42.638;23.376;2023-10-13T13:08:59;13.75;13.75;8.00
72307;PMS5003;60257;42.638;23.376;2023-10-13T13:11:25;9.50;9.50;6.00
72307;PMS5003;60257;42.638;23.376;2023-10-13T13:13:54;12.25;9.25;6.00
72307;PMS5003;60257;42.638;23.376;2023-10-13T13:16:20;12.00;11.00;6.25
72307;PMS5003;60257;42.638;23.376;2023-10-13T13:18:49;19.00;19.00;10.00
72307;PMS5003;60257;42.638;23.376;2023-10-13T13:21:15;27.00;23.75;13.75
72307;PMS5003;60257;42.638;23.376;2023-10-13T13:23:50;11.25;10.00;6.50
72307;PMS5003;60257;42.638;23.376;2023-10-13T13:26:16;12.25;11.00;8.00
72307;PMS5003;60257;42.638;23.376;2023-10-13T13:28:43;12.00;12.00;8.00
72307;PMS5003;60257;42.638;23.376;2023-10-13T13:31:16;10.50;9.25;6.00
72307;PMS5003;60257;42.638;23.376;2023-10-13T13:33:41;9.25;9.25;6.00
72307;PMS5003;60257;42.638;23.376;2023-10-13T13:36:09;8.00;6.00;5.00
72307;PMS5003;60257;42.638;23.376;2023-10-13T13:38:41;10.25;9.50;6.75
72307;PMS5003;60257;42.638;23.376;2023-10-13T13:41:13;10.25;8.75;6.00
72307;PMS5003;60257;42.638;23.376;2023-10-13T13:43:50;14.25;10.50;7.00
72307;PMS5003;60257;42.638;23.376;2023-10-13T13:46:20;5.75;5.00;2.50
72307;PMS5003;60257;42.638;23.376;2023-10-13T13:49:05;13.50;13.50;7.25
72307;PMS5003;60257;42.638;23.376;2023-10-13T13:51:32;11.00;10.75;6.50
72307;PMS5003;60257;42.638;23.376;2023-10-13T13:53:59;11.00;11.00;7.00
72307;PMS5003;60257;42.638;23.376;2023-10-13T13:56:25;7.75;7.75;6.50
72307;PMS5003;60257;42.638;23.376;2023-10-13T13:58:52;12.50;12.00;6.00
72307;PMS5003;60257;42.638;23.376;2023-10-13T14:01:19;10.00;9.25;6.25
72307;PMS5003;60257;42.638;23.376;2023-10-13T14:03:50;16.00;13.00;8.75
72307;PMS5003;60257;42.638;23.376;2023-10-13T14:06:17;12.75;12.25;6.75
72307;PMS5003;60257;42.638;23.376;2023-10-13T14:08:56;11.25;11.25;7.00
72307;PMS5003;60257;42.638;23.376;2023-10-13T14:11:25;10.00;10.00;6.00
72307;PMS5003;60257;42.638;23.376;2023-10-13T14:14:11;11.75;11.75;9.00
72307;PMS5003;60257;42.638;23.376;2023-10-13T14:16:38;12.50;12.50;8.00
72307;PMS5003;60257;42.638;23.376;2023-10-13T14:19:15;13.25;13.25;8.00
72307;PMS5003;60257;42.638;23.376;2023-10-13T14:21:56;14.00;12.50;6.75
72307;PMS5003;60257;42.638;23.376;2023-10-13T14:24:23;11.00;11.00;6.00
72307;PMS5003;60257;42.638;23.376;2023-10-13T14:26:56;12.50;12.25;7.50
72307;PMS5003;60257;42.638;23.376;2023-10-13T14:29:46;13.25;13.25;10.00
72307;PMS5003;60257;42.638;23.376;2023-10-13T14:32:13;11.25;11.00;7.00
72307;PMS5003;60257;42.638;23.376;2023-10-13T14:34:44;12.75;12.50;7.50